Time;durP1;ratioP1;P1;durP2;ratioP2;P2;SDS_P1;SDS_P2;PMS_P1;PMS_P2;Temp;Humidity;BMP_temperature;BMP_pressure;BME280_temperature;BME280_humidity;BME280_pressure;Samples;Min_cycle;Max_cycle;Signal;HPM_P1;HPM_P2
2024/01/31 00:02:12;;;;;;;7.80;0.77;;;5.70;99.90;;;;;;5059830;28;20119;-71
2024/01/31 00:04:37;;;;;;;12.60;1.10;;;5.70;99.90;;;;;;5055414;28;20052;-73
2024/01/31 00:07:04;;;;;;;8.10;1.07;;;5.60;99.90;;;;;;5050755;28;20127;-73
2024/01/31 00:09:30;;;;;;;7.25;1.50;;;5.70;99.90;;;;;;5045765;28;20452;-71
2024/01/31 00:11:55;;;;;;;4.33;1.23;;;5.70;99.90;;;;;;5053258;28;20072;-73
2024/01/31 00:14:21;;;;;;;7.80;1.00;;;5.70;99.90;;;;;;5055857;28;20045;-72
2024/01/31 00:16:47;;;;;;;4.37;1.03;;;5.70;99.90;;;;;;5057001;28;20502;-71
2024/01/31 00:19:12;;;;;;;5.07;1.63;;;5.70;99.90;;;;;;5059482;28;20047;-70
2024/01/31 00:21:38;;;;;;;5.10;0.83;;;5.70;99.90;;;;;;5055578;28;20045;-70
2024/01/31 00:24:05;;;;;;;3.28;1.00;;;5.70;99.90;;;;;;5060159;28;20037;-70
2024/01/31 00:26:31;;;;;;;;;;;5.70;99.90;;;;;;5055091;28;20052;-71
2024/01/31 00:28:57;;;;;;;4.13;0.80;;;5.70;99.90;;;;;;5054571;28;20392;-71
2024/01/31 00:31:22;;;;;;;7.68;1.52;;;5.70;99.90;;;;;;5052666;28;20051;-71
2024/01/31 00:33:48;;;;;;;5.90;1.20;;;5.60;99.90;;;;;;5036256;28;20053;-70
2024/01/31 00:36:15;;;;;;;7.90;1.03;;;5.70;99.90;;;;;;5052214;28;20330;-70
2024/01/31 00:38:40;;;;;;;3.05;0.70;;;5.70;99.90;;;;;;5056798;28;21710;-70
2024/01/31 00:41:09;;;;;;;1.30;0.50;;;5.70;99.90;;;;;;5057437;28;20029;-70
2024/01/31 00:43:35;;;;;;;6.43;1.17;;;5.70;99.90;;;;;;5049020;28;20060;-73
2024/01/31 00:46:04;;;;;;;4.80;1.07;;;5.70;99.90;;;;;;5058210;28;20553;-69
2024/01/31 00:48:32;;;;;;;4.15;0.98;;;5.70;99.90;;;;;;5056029;28;20281;-69
2024/01/31 00:50:58;;;;;;;5.85;1.10;;;5.70;99.90;;;;;;5057841;28;20051;-72
2024/01/31 00:53:24;;;;;;;;;;;5.70;99.90;;;;;;5038944;28;20165;-70
2024/01/31 00:55:50;;;;;;;4.53;0.80;;;5.60;99.90;;;;;;5057213;28;19928;-70
2024/01/31 00:58:15;;;;;;;2.97;0.63;;;5.60;99.90;;;;;;5053774;28;21013;-71
2024/01/31 01:00:41;;;;;;;2.27;0.50;;;5.60;99.90;;;;;;5041345;28;20439;-70
2024/01/31 01:03:07;;;;;;;6.78;0.85;;;5.70;99.90;;;;;;5040452;28;20036;-71
2024/01/31 01:05:33;;;;;;;4.60;1.30;;;5.70;99.90;;;;;;5039403;28;20094;-71
2024/01/31 01:08:00;;;;;;;9.00;1.20;;;5.70;99.90;;;;;;5044658;28;20052;-71
2024/01/31 01:10:26;;;;;;;7.18;0.95;;;5.70;99.90;;;;;;5038858;28;20055;-71
2024/01/31 01:12:51;;;;;;;4.00;1.70;;;5.70;99.90;;;;;;5041316;28;20040;-71
2024/01/31 01:15:19;;;;;;;9.53;0.97;;;5.70;99.90;;;;;;5053487;28;20405;-70
2024/01/31 01:17:44;;;;;;;3.78;1.10;;;5.70;99.90;;;;;;5038339;28;20138;-71
2024/01/31 01:20:10;;;;;;;6.50;0.97;;;5.60;99.90;;;;;;5054292;28;20032;-70
2024/01/31 01:22:36;;;;;;;7.45;1.00;;;5.60;99.90;;;;;;5054903;28;20033;-70
2024/01/31 01:25:04;;;;;;;3.00;0.67;;;5.60;99.90;;;;;;5060374;28;20036;-71
2024/01/31 01:27:30;;;;;;;7.60;0.90;;;5.60;99.90;;;;;;5049975;28;20177;-70
2024/01/31 01:29:55;;;;;;;9.70;0.60;;;5.60;99.90;;;;;;5056688;28;20098;-71
2024/01/31 01:32:23;;;;;;;2.85;0.80;;;5.60;99.90;;;;;;5055329;28;20394;-71
2024/01/31 01:34:49;;;;;;;4.67;0.83;;;5.60;99.90;;;;;;5048719;28;20041;-72
2024/01/31 01:37:17;;;;;;;2.50;0.73;;;5.50;99.90;;;;;;5051960;28;20076;-70
2024/01/31 01:39:45;;;;;;;3.10;1.27;;;5.50;99.90;;;;;;5053745;28;20035;-71
2024/01/31 01:42:11;;;;;;;4.78;0.98;;;5.50;99.90;;;;;;5061551;28;20055;-70
2024/01/31 01:44:42;;;;;;;2.08;0.80;;;5.50;99.90;;;;;;5052193;28;20045;-70
2024/01/31 01:47:09;;;;;;;2.78;0.65;;;5.50;99.90;;;;;;5061120;28;20106;-71
2024/01/31 01:49:36;;;;;;;8.80;0.93;;;5.40;99.90;;;;;;5050992;28;20045;-71
2024/01/31 01:52:02;;;;;;;6.40;1.02;;;5.40;99.90;;;;;;5052383;28;20075;-71
2024/01/31 01:54:28;;;;;;;5.50;1.20;;;5.40;99.90;;;;;;5035276;28;20040;-72
2024/01/31 01:56:57;;;;;;;4.22;1.33;;;5.40;99.90;;;;;;5051824;28;20055;-70
2024/01/31 01:59:23;;;;;;;4.88;1.10;;;5.30;99.90;;;;;;5053298;28;20123;-70
2024/01/31 02:01:49;;;;;;;3.72;0.82;;;5.30;99.90;;;;;;5046850;28;20581;-70
2024/01/31 02:04:18;;;;;;;5.15;1.30;;;5.20;99.90;;;;;;5057470;28;20051;-70
2024/01/31 02:06:44;;;;;;;7.45;1.52;;;5.20;99.90;;;;;;5054875;28;20089;-70
2024/01/31 02:09:10;;;;;;;4.50;0.87;;;5.20;99.90;;;;;;5061159;28;20036;-72
2024/01/31 02:11:35;;;;;;;3.45;0.90;;;5.20;99.90;;;;;;5053107;28;20052;-70
2024/01/31 02:14:01;;;;;;;3.87;0.67;;;5.10;99.90;;;;;;5040117;28;20037;-70
2024/01/31 02:16:27;;;;;;;3.43;0.47;;;5.10;99.90;;;;;;5059262;28;20091;-70
2024/01/31 02:18:53;;;;;;;1.60;0.57;;;5.00;99.90;;;;;;5056915;28;20044;-71
2024/01/31 02:21:19;;;;;;;4.83;0.73;;;5.00;99.90;;;;;;5055827;28;20049;-70
2024/01/31 02:23:45;;;;;;;5.95;0.60;;;4.90;99.90;;;;;;5053905;28;20287;-70
2024/01/31 02:26:10;;;;;;;6.60;0.73;;;4.90;99.90;;;;;;5055027;28;20492;-70
2024/01/31 02:28:38;;;;;;;2.97;0.50;;;4.90;99.90;;;;;;5056196;28;20053;-72
2024/01/31 02:31:04;;;;;;;3.42;0.50;;;4.90;99.90;;;;;;5059000;28;20337;-72
2024/01/31 02:33:30;;;;;;;2.40;0.57;;;4.90;99.90;;;;;;5050661;28;20497;-71
2024/01/31 02:35:55;;;;;;;1.40;0.47;;;4.90;99.90;;;;;;5058886;28;20041;-71
2024/01/31 02:38:21;;;;;;;4.30;0.43;;;4.90;99.90;;;;;;5061724;28;20775;-74
2024/01/31 02:40:46;;;;;;;2.37;0.60;;;4.90;99.90;;;;;;5056842;28;20029;-71
2024/01/31 02:43:12;;;;;;;5.03;0.30;;;4.90;99.90;;;;;;5058700;28;20068;-71
2024/01/31 02:45:38;;;;;;;6.17;0.50;;;4.90;99.90;;;;;;5055984;28;20271;-71
2024/01/31 02:48:04;;;;;;;6.17;0.50;;;4.90;99.90;;;;;;5055510;28;20040;-71
2024/01/31 02:50:31;;;;;;;5.15;1.05;;;4.90;99.90;;;;;;5055390;28;20052;-70
2024/01/31 02:52:59;;;;;;;2.33;0.73;;;4.90;99.90;;;;;;5037433;28;20072;-69
2024/01/31 02:55:25;;;;;;;5.38;0.47;;;4.90;99.90;;;;;;5053355;28;20040;-69
2024/01/31 02:57:50;;;;;;;2.87;0.50;;;4.90;99.90;;;;;;5060065;28;20507;-70
2024/01/31 03:00:16;;;;;;;4.80;0.70;;;4.90;99.90;;;;;;5056045;28;20045;-69
2024/01/31 03:02:43;;;;;;;5.17;0.70;;;4.90;99.90;;;;;;5053254;28;20040;-68
2024/01/31 03:05:10;;;;;;;4.57;0.40;;;5.00;99.90;;;;;;5055372;28;20492;-69
2024/01/31 03:07:35;;;;;;;4.72;0.82;;;4.90;99.90;;;;;;5057604;28;20315;-68
2024/01/31 03:10:01;;;;;;;3.27;0.53;;;4.90;99.90;;;;;;5058336;28;20094;-68
2024/01/31 03:12:27;;;;;;;2.73;0.37;;;4.80;99.90;;;;;;5053971;28;20039;-69
2024/01/31 03:14:52;;;;;;;1.80;0.40;;;4.80;99.90;;;;;;5058271;28;20048;-68
2024/01/31 03:17:21;;;;;;;1.92;0.40;;;4.80;99.90;;;;;;5055887;28;20404;-69
2024/01/31 03:19:46;;;;;;;0.97;0.33;;;4.80;99.90;;;;;;5056985;28;20128;-69
2024/01/31 03:22:12;;;;;;;1.70;0.30;;;4.70;99.90;;;;;;5053107;28;20037;-68
2024/01/31 03:24:38;;;;;;;2.40;0.83;;;4.70;99.90;;;;;;5057331;28;20071;-68
2024/01/31 03:27:04;;;;;;;2.22;0.38;;;4.70;99.90;;;;;;5059961;28;20426;-67
2024/01/31 03:29:30;;;;;;;1.92;0.40;;;4.70;99.90;;;;;;5057288;28;20512;-68
2024/01/31 03:31:57;;;;;;;3.27;1.43;;;4.60;99.90;;;;;;5060373;28;20044;-68
2024/01/31 03:34:23;;;;;;;;;;;4.60;99.90;;;;;;5057148;28;20050;-68
2024/01/31 03:36:52;;;;;;;4.60;0.60;;;4.60;99.90;;;;;;5061282;28;19924;-68
2024/01/31 03:39:19;;;;;;;2.40;0.63;;;4.60;99.90;;;;;;5061470;28;20052;-68
2024/01/31 03:41:45;;;;;;;3.80;0.90;;;4.60;99.90;;;;;;5060387;28;20237;-68
2024/01/31 03:44:11;;;;;;;3.42;0.22;;;4.60;99.90;;;;;;5058264;28;20213;-68
2024/01/31 03:46:36;;;;;;;3.60;0.77;;;4.60;99.90;;;;;;5061183;28;20523;-68
2024/01/31 03:49:02;;;;;;;1.07;0.30;;;4.60;99.90;;;;;;5046214;28;20366;-68
2024/01/31 03:51:27;;;;;;;1.10;0.47;;;4.60;99.90;;;;;;5059711;28;20056;-67
2024/01/31 03:53:53;;;;;;;0.97;0.37;;;4.60;99.90;;;;;;5058771;28;20048;-70
2024/01/31 03:56:19;;;;;;;6.00;0.63;;;4.60;99.90;;;;;;5055929;28;20182;-67
2024/01/31 03:58:47;;;;;;;1.03;0.40;;;4.60;99.90;;;;;;5061992;28;20048;-67
2024/01/31 04:01:16;;;;;;;4.70;0.47;;;4.60;99.90;;;;;;5053405;28;20039;-67
2024/01/31 04:03:44;;;;;;;2.47;0.30;;;4.60;99.90;;;;;;5053745;28;20064;-67
2024/01/31 04:06:10;;;;;;;5.88;0.30;;;4.60;99.90;;;;;;5056841;28;20041;-68
2024/01/31 04:08:36;;;;;;;4.95;1.17;;;4.60;99.90;;;;;;5055974;28;20045;-67
2024/01/31 04:11:04;;;;;;;0.83;0.10;;;4.70;99.90;;;;;;5058710;28;20120;-67
2024/01/31 04:13:30;;;;;;;2.47;0.30;;;4.70;99.90;;;;;;5061983;28;20512;-67
2024/01/31 04:15:59;;;;;;;1.17;0.20;;;4.60;99.90;;;;;;5058145;28;20053;-68
2024/01/31 04:18:24;;;;;;;5.90;0.30;;;4.60;99.90;;;;;;5056281;28;20101;-67
2024/01/31 04:20:50;;;;;;;3.50;0.50;;;4.70;99.90;;;;;;5053504;28;20044;-67
2024/01/31 04:23:18;;;;;;;6.20;0.53;;;4.70;99.90;;;;;;5059420;28;20467;-67
2024/01/31 04:25:44;;;;;;;2.05;0.28;;;4.70;99.90;;;;;;5054662;28;20039;-67
2024/01/31 04:28:13;;;;;;;3.27;0.60;;;4.80;99.90;;;;;;5057296;28;20040;-67
2024/01/31 04:30:38;;;;;;;2.03;0.68;;;4.80;99.90;;;;;;5058281;28;20049;-67
2024/01/31 04:33:04;;;;;;;1.63;0.60;;;4.80;99.90;;;;;;5059157;28;20167;-67
2024/01/31 04:35:30;;;;;;;1.20;0.47;;;4.80;99.90;;;;;;5062063;28;20075;-67
2024/01/31 04:37:57;;;;;;;2.60;0.70;;;4.90;99.90;;;;;;5054989;28;20048;-67
2024/01/31 04:40:23;;;;;;;2.72;0.70;;;4.90;99.90;;;;;;5045140;28;20083;-67
2024/01/31 04:42:49;;;;;;;4.03;1.10;;;4.90;99.90;;;;;;5062619;28;20067;-67
2024/01/31 04:45:14;;;;;;;3.20;0.83;;;4.90;99.90;;;;;;5062343;28;20460;-68
2024/01/31 04:47:43;;;;;;;5.47;0.67;;;4.90;99.90;;;;;;5054810;28;20060;-67
2024/01/31 04:50:10;;;;;;;2.13;0.73;;;4.90;99.90;;;;;;5054200;28;20043;-67
2024/01/31 04:52:36;;;;;;;3.45;0.90;;;4.90;99.90;;;;;;5057022;28;20204;-68
2024/01/31 04:55:02;;;;;;;3.37;0.97;;;5.00;99.90;;;;;;5059181;28;20119;-68
2024/01/31 04:57:28;;;;;;;2.20;0.70;;;5.00;99.90;;;;;;5040937;28;20044;-68
2024/01/31 04:59:54;;;;;;;9.38;2.25;;;5.00;99.90;;;;;;5059642;28;20417;-67
2024/01/31 05:02:20;;;;;;;3.50;0.77;;;5.00;99.90;;;;;;5052444;28;20037;-67
2024/01/31 05:04:45;;;;;;;7.13;0.80;;;5.00;99.90;;;;;;5061519;28;20025;-67
2024/01/31 05:07:11;;;;;;;4.70;0.80;;;5.00;99.90;;;;;;5057530;28;20064;-67
2024/01/31 05:09:39;;;;;;;5.82;0.93;;;5.00;99.90;;;;;;5053653;28;20378;-67
2024/01/31 05:12:05;;;;;;;9.50;1.83;;;5.00;99.90;;;;;;5055867;28;20059;-67
2024/01/31 05:14:31;;;;;;;4.80;1.23;;;5.00;99.90;;;;;;5049611;28;20127;-68
2024/01/31 05:16:57;;;;;;;2.93;0.70;;;5.10;99.90;;;;;;5056012;28;20048;-67
2024/01/31 05:19:22;;;;;;;3.78;0.80;;;5.00;99.90;;;;;;5059253;28;20063;-67
2024/01/31 05:21:50;;;;;;;5.00;1.00;;;5.10;99.90;;;;;;5058178;28;20072;-66
2024/01/31 05:24:17;;;;;;;3.97;0.63;;;5.10;99.90;;;;;;5056541;28;20041;-67
2024/01/31 05:26:45;;;;;;;5.50;0.90;;;5.10;99.90;;;;;;5055591;28;20262;-67
2024/01/31 05:29:11;;;;;;;2.95;0.93;;;5.00;99.90;;;;;;5053402;28;20052;-67
2024/01/31 05:31:37;;;;;;;3.67;0.95;;;5.00;99.90;;;;;;5039549;28;20133;-67
2024/01/31 05:34:03;;;;;;;9.70;0.90;;;5.10;99.90;;;;;;5061459;28;20058;-68
2024/01/31 05:36:29;;;;;;;7.00;1.25;;;5.00;99.90;;;;;;5057564;28;20412;-67
2024/01/31 05:38:55;;;;;;;5.80;1.77;;;5.00;99.90;;;;;;5055854;28;20052;-67
2024/01/31 05:41:20;;;;;;;8.82;0.68;;;5.00;99.90;;;;;;5055923;28;20041;-67
2024/01/31 05:43:46;;;;;;;2.67;0.60;;;4.90;99.90;;;;;;5058571;28;20063;-67
2024/01/31 05:46:16;;;;;;;3.80;0.60;;;5.00;99.90;;;;;;5058023;28;20494;-67
2024/01/31 05:48:43;;;;;;;1.70;0.52;;;4.90;99.90;;;;;;5061369;28;20169;-67
2024/01/31 05:51:09;;;;;;;4.68;0.80;;;4.90;99.90;;;;;;5060176;28;20048;-67
2024/01/31 05:53:38;;;;;;;0.90;0.50;;;4.90;99.90;;;;;;5055391;28;20052;-66
2024/01/31 05:56:04;;;;;;;6.03;0.77;;;4.90;99.90;;;;;;5056792;28;20412;-67
2024/01/31 05:58:30;;;;;;;3.90;0.35;;;4.90;99.90;;;;;;5061022;28;20866;-67
2024/01/31 06:00:56;;;;;;;2.33;0.73;;;4.80;99.90;;;;;;5056767;28;20041;-66
2024/01/31 06:03:24;;;;;;;8.10;1.20;;;4.90;99.90;;;;;;5054670;28;20420;-67
2024/01/31 06:05:50;;;;;;;4.03;0.80;;;4.80;99.90;;;;;;5058055;28;20041;-67
2024/01/31 06:08:18;;;;;;;4.15;0.55;;;4.80;99.90;;;;;;5053698;28;20072;-67
2024/01/31 06:10:46;;;;;;;5.05;0.55;;;4.70;99.90;;;;;;5053825;28;20603;-67
2024/01/31 06:13:11;;;;;;;7.90;0.75;;;4.70;99.90;;;;;;5040774;28;20070;-67
2024/01/31 06:15:37;;;;;;;3.70;0.50;;;4.60;99.90;;;;;;5055259;28;20407;-69
2024/01/31 06:18:03;;;;;;;4.33;0.60;;;4.60;99.90;;;;;;5052112;28;20045;-67
2024/01/31 06:20:28;;;;;;;5.70;0.90;;;4.50;99.90;;;;;;5061566;28;20044;-68
2024/01/31 06:22:54;;;;;;;2.57;0.97;;;4.50;99.90;;;;;;5056031;28;20044;-67
2024/01/31 06:25:20;;;;;;;3.93;1.03;;;4.40;99.90;;;;;;5059071;28;20035;-67
2024/01/31 06:27:46;;;;;;;6.63;1.00;;;4.40;99.90;;;;;;5057840;28;20084;-67
2024/01/31 06:30:19;;;;;;;2.38;1.00;;;4.40;99.90;;;;;;5056594;28;20390;-67
2024/01/31 06:32:47;;;;;;;3.47;0.90;;;4.30;99.90;;;;;;5055934;28;20063;-67
2024/01/31 06:35:13;;;;;;;3.40;1.00;;;4.40;99.90;;;;;;5053547;28;20047;-67
2024/01/31 06:37:39;;;;;;;5.93;1.42;;;4.40;99.90;;;;;;5056852;28;20045;-67
2024/01/31 06:40:08;;;;;;;3.03;0.63;;;4.40;99.90;;;;;;5058717;28;20033;-70
2024/01/31 06:42:34;;;;;;;6.20;1.00;;;4.40;99.90;;;;;;5060252;28;20040;-73
2024/01/31 06:44:59;;;;;;;6.17;1.23;;;4.50;99.90;;;;;;5060493;28;20033;-72
2024/01/31 06:47:25;;;;;;;2.67;0.90;;;4.50;99.90;;;;;;5052993;28;20058;-70
2024/01/31 06:49:50;;;;;;;7.50;0.90;;;4.50;99.90;;;;;;5056748;28;20052;-68
2024/01/31 06:52:16;;;;;;;3.77;0.90;;;4.50;99.90;;;;;;5059663;28;20041;-68
2024/01/31 06:54:42;;;;;;;6.67;1.13;;;4.60;99.90;;;;;;5051704;28;20056;-74
2024/01/31 06:57:08;;;;;;;6.00;1.10;;;4.60;99.90;;;;;;5053206;28;20051;-68
2024/01/31 06:59:33;;;;;;;3.17;0.93;;;4.60;99.90;;;;;;5048811;28;20033;-68
2024/01/31 07:01:59;;;;;;;4.50;1.00;;;4.60;99.90;;;;;;5056754;28;20294;-68
2024/01/31 07:04:25;;;;;;;4.23;0.93;;;4.60;99.90;;;;;;5058678;28;20047;-67
2024/01/31 07:06:51;;;;;;;5.17;0.97;;;4.60;99.90;;;;;;5059217;28;20049;-67
2024/01/31 07:09:17;;;;;;;2.15;0.93;;;4.60;99.90;;;;;;5061098;28;20044;-67
2024/01/31 07:11:43;;;;;;;6.33;1.00;;;4.60;99.90;;;;;;5054687;28;20036;-66
2024/01/31 07:14:09;;;;;;;9.15;0.98;;;4.60;99.90;;;;;;5061096;28;20044;-67
2024/01/31 07:16:35;;;;;;;7.23;0.93;;;4.60;99.90;;;;;;5057446;28;20570;-67
2024/01/31 07:19:01;;;;;;;2.97;1.02;;;4.70;99.90;;;;;;5058577;28;20520;-67
2024/01/31 07:21:29;;;;;;;3.38;0.90;;;4.60;99.90;;;;;;5062549;28;20077;-67
2024/01/31 07:23:57;;;;;;;8.05;1.05;;;4.70;99.90;;;;;;5054941;28;20163;-67
2024/01/31 07:26:26;;;;;;;2.75;1.08;;;4.70;99.90;;;;;;5038996;28;20145;-68
2024/01/31 07:28:52;;;;;;;7.90;1.08;;;4.70;99.90;;;;;;5057052;28;20500;-68
2024/01/31 07:31:18;;;;;;;6.60;1.17;;;4.70;99.90;;;;;;5058653;28;20306;-67
2024/01/31 07:33:44;;;;;;;4.13;1.13;;;4.70;99.90;;;;;;5038642;28;20045;-68
2024/01/31 07:36:10;;;;;;;4.57;1.08;;;4.70;99.90;;;;;;5062177;28;20052;-68
2024/01/31 07:38:36;;;;;;;6.25;0.95;;;4.70;99.90;;;;;;5059792;28;20036;-68
2024/01/31 07:41:02;;;;;;;5.40;1.20;;;4.80;99.90;;;;;;5065774;28;20036;-68
2024/01/31 07:43:27;;;;;;;2.67;0.90;;;4.80;99.90;;;;;;5065411;28;20266;-72
2024/01/31 07:45:53;;;;;;;7.30;1.47;;;4.80;99.90;;;;;;5058547;28;20515;-70
2024/01/31 07:48:19;;;;;;;4.60;1.03;;;4.70;99.90;;;;;;5057236;28;20334;-71
2024/01/31 07:50:45;;;;;;;3.50;1.70;;;4.80;99.90;;;;;;5061029;28;20032;-71
2024/01/31 07:53:11;;;;;;;5.00;1.40;;;4.80;99.90;;;;;;5061533;28;20102;-72
2024/01/31 07:55:36;;;;;;;4.53;1.10;;;4.80;99.90;;;;;;5060195;28;20044;-69
2024/01/31 07:58:03;;;;;;;5.90;1.47;;;4.80;99.90;;;;;;5057327;28;20076;-70
2024/01/31 08:00:28;;;;;;;5.80;1.75;;;4.80;99.90;;;;;;5060002;28;20045;-70
2024/01/31 08:02:54;;;;;;;7.63;1.70;;;4.80;99.90;;;;;;5054072;28;20109;-70
2024/01/31 08:05:20;;;;;;;2.30;1.40;;;4.90;99.90;;;;;;5058126;28;20273;-70
2024/01/31 08:07:46;;;;;;;4.83;1.70;;;4.90;99.90;;;;;;5053905;28;20083;-69
2024/01/31 08:10:12;;;;;;;6.38;2.05;;;4.90;99.90;;;;;;5045920;28;20103;-69
2024/01/31 08:12:39;;;;;;;;;;;4.90;99.90;;;;;;5059823;28;20461;-69
2024/01/31 08:15:05;;;;;;;5.82;1.50;;;5.00;99.90;;;;;;5058856;28;19924;-69
2024/01/31 08:17:31;;;;;;;2.95;1.45;;;5.00;99.90;;;;;;5060122;28;20357;-69
2024/01/31 08:19:56;;;;;;;2.93;2.00;;;5.00;99.90;;;;;;5060520;28;20075;-69
2024/01/31 08:22:22;;;;;;;3.93;1.80;;;5.00;99.90;;;;;;5058836;28;20127;-70
2024/01/31 08:24:48;;;;;;;4.33;1.87;;;5.00;99.90;;;;;;5064264;28;20035;-70
2024/01/31 08:27:13;;;;;;;5.73;2.20;;;5.10;99.90;;;;;;5060522;28;20103;-72
2024/01/31 08:29:39;;;;;;;5.63;2.23;;;5.10;99.90;;;;;;5057514;28;20247;-76
2024/01/31 08:32:05;;;;;;;7.33;2.30;;;5.10;99.90;;;;;;5055896;28;20133;-71
2024/01/31 08:34:31;;;;;;;4.43;2.45;;;5.10;99.90;;;;;;5057309;28;21571;-70
2024/01/31 08:36:56;;;;;;;7.33;2.33;;;5.20;99.90;;;;;;5059230;28;20138;-70
2024/01/31 08:39:22;;;;;;;4.57;2.30;;;5.20;99.90;;;;;;5061048;28;20508;-71
2024/01/31 08:41:48;;;;;;;7.30;2.60;;;5.20;99.90;;;;;;5062184;28;20060;-71
2024/01/31 08:44:15;;;;;;;7.20;2.45;;;5.20;99.90;;;;;;5061399;28;20153;-72
2024/01/31 08:46:41;;;;;;;4.63;2.50;;;5.20;99.90;;;;;;5041482;28;20282;-71
2024/01/31 08:49:06;;;;;;;9.45;3.15;;;5.30;99.90;;;;;;5041930;28;20310;-71
2024/01/31 08:51:33;;;;;;;7.33;3.33;;;5.30;99.90;;;;;;5056467;28;20036;-71
2024/01/31 08:53:59;;;;;;;;;;;5.30;99.90;;;;;;5058643;28;20127;-71
2024/01/31 08:56:24;;;;;;;6.97;3.05;;;5.30;99.90;;;;;;5056058;28;20014;-74
2024/01/31 08:58:50;;;;;;;12.90;3.03;;;5.40;99.90;;;;;;5056766;28;20473;-70
2024/01/31 09:01:16;;;;;;;7.97;4.30;;;5.40;99.90;;;;;;5060585;28;20567;-71
2024/01/31 09:03:41;;;;;;;8.63;3.90;;;5.50;99.90;;;;;;5056564;28;20062;-70
2024/01/31 09:06:07;;;;;;;8.03;3.37;;;5.50;99.90;;;;;;5053056;28;20044;-70
2024/01/31 09:08:32;;;;;;;8.97;3.60;;;5.60;99.90;;;;;;5060831;28;20520;-72
2024/01/31 09:10:58;;;;;;;6.73;3.93;;;5.60;99.90;;;;;;5060471;28;20054;-71
2024/01/31 09:13:24;;;;;;;7.57;4.27;;;5.60;99.90;;;;;;5054428;28;20044;-70
2024/01/31 09:15:50;;;;;;;9.30;4.07;;;5.70;99.90;;;;;;5059410;28;20044;-71
2024/01/31 09:18:16;;;;;;;9.77;4.47;;;5.70;99.90;;;;;;5058407;28;20045;-71
2024/01/31 09:20:41;;;;;;;14.40;5.60;;;5.80;99.90;;;;;;5059531;28;20044;-70
2024/01/31 09:23:07;;;;;;;8.50;5.10;;;5.90;99.90;;;;;;5039871;28;20076;-70
2024/01/31 09:25:33;;;;;;;8.73;4.70;;;5.80;99.90;;;;;;5050762;28;20075;-72
2024/01/31 09:27:59;;;;;;;8.25;4.32;;;5.90;99.90;;;;;;5058656;28;20092;-70
2024/01/31 09:30:24;;;;;;;11.00;4.77;;;5.90;99.90;;;;;;5058176;28;20506;-71
2024/01/31 09:32:50;;;;;;;12.83;4.90;;;6.00;99.90;;;;;;5042033;28;20094;-71
2024/01/31 09:35:15;;;;;;;9.93;4.50;;;6.00;99.90;;;;;;5060971;28;20032;-71
2024/01/31 09:37:41;;;;;;;11.53;5.10;;;6.00;99.90;;;;;;5060365;28;20128;-70
2024/01/31 09:40:08;;;;;;;8.10;4.83;;;6.00;99.90;;;;;;5062055;28;20070;-70
2024/01/31 09:42:33;;;;;;;8.35;4.53;;;6.00;99.90;;;;;;5059852;28;20361;-70
2024/01/31 09:45:01;;;;;;;13.40;4.93;;;6.10;99.90;;;;;;5060825;28;20123;-70
2024/01/31 09:47:27;;;;;;;9.45;4.45;;;6.10;99.90;;;;;;5059525;28;20036;-70
2024/01/31 09:49:54;;;;;;;;;;;6.10;99.90;;;;;;5061438;28;20140;-71
2024/01/31 09:52:27;;;;;;;11.80;4.88;;;6.20;99.90;;;;;;5060862;28;19916;-70
2024/01/31 09:54:58;;;;;;;7.22;4.03;;;6.20;99.90;;;;;;5055347;28;20056;-71
2024/01/31 09:57:25;;;;;;;9.25;4.93;;;6.20;99.90;;;;;;5056495;28;20032;-70
2024/01/31 09:59:51;;;;;;;;;;;6.30;99.90;;;;;;5059497;28;20471;-70
2024/01/31 10:02:17;;;;;;;10.18;4.85;;;6.30;99.90;;;;;;5061971;28;19920;-70
2024/01/31 10:04:48;;;;;;;8.18;4.80;;;6.30;99.90;;;;;;5053958;28;20032;-72
2024/01/31 10:07:22;;;;;;;8.48;4.50;;;6.30;99.90;;;;;;5059911;28;20052;-70
2024/01/31 10:09:48;;;;;;;10.45;4.80;;;6.30;99.90;;;;;;5056809;28;20495;-71
2024/01/31 10:12:15;;;;;;;8.40;4.63;;;6.40;99.90;;;;;;5059767;28;20068;-70
2024/01/31 10:14:42;;;;;;;6.80;3.70;;;6.40;99.90;;;;;;5054770;28;20394;-70
2024/01/31 10:17:08;;;;;;;8.90;4.53;;;6.40;99.90;;;;;;5053581;28;20765;-71
2024/01/31 10:19:33;;;;;;;9.30;4.50;;;6.40;99.90;;;;;;5034405;28;20048;-72
2024/01/31 10:21:59;;;;;;;8.53;5.33;;;6.50;99.90;;;;;;5049971;28;20041;-70
2024/01/31 10:24:25;;;;;;;6.23;3.53;;;6.60;99.90;;;;;;5057286;28;20033;-72
2024/01/31 10:26:50;;;;;;;8.03;4.23;;;6.50;99.90;;;;;;5060486;28;20374;-70
2024/01/31 10:29:18;;;;;;;7.63;4.57;;;6.50;99.90;;;;;;5061066;28;20556;-70
2024/01/31 10:31:46;;;;;;;8.68;4.20;;;6.50;99.90;;;;;;5053945;28;20131;-70
2024/01/31 10:34:13;;;;;;;11.93;4.85;;;6.50;99.90;;;;;;5056657;28;20072;-71
2024/01/31 10:36:42;;;;;;;7.13;3.90;;;6.60;99.90;;;;;;5055386;28;20419;-71
2024/01/31 10:39:11;;;;;;;8.18;4.75;;;6.60;99.90;;;;;;5059283;28;20106;-71
2024/01/31 10:41:43;;;;;;;8.90;4.47;;;6.60;99.90;;;;;;5050463;28;20037;-71
2024/01/31 10:44:13;;;;;;;7.53;3.90;;;6.60;99.90;;;;;;5044808;28;20036;-70
2024/01/31 10:46:39;;;;;;;9.77;4.30;;;6.60;99.90;;;;;;5061668;28;20044;-70
2024/01/31 10:49:05;;;;;;;6.32;3.58;;;6.60;99.90;;;;;;5053251;28;20918;-70
2024/01/31 10:51:32;;;;;;;7.40;3.83;;;6.70;99.90;;;;;;5060155;28;22106;-71
2024/01/31 10:53:59;;;;;;;7.18;3.75;;;6.70;99.90;;;;;;5057934;28;20055;-70
2024/01/31 10:56:25;;;;;;;7.18;3.90;;;6.70;99.90;;;;;;5052569;28;20083;-70
2024/01/31 10:58:51;;;;;;;8.48;4.53;;;6.80;99.90;;;;;;5056541;28;20056;-71
2024/01/31 11:01:17;;;;;;;8.40;4.20;;;6.70;99.90;;;;;;5059059;28;20063;-71
2024/01/31 11:03:46;;;;;;;5.50;3.40;;;6.80;99.90;;;;;;5058754;28;20079;-72
2024/01/31 11:06:12;;;;;;;9.10;4.03;;;6.80;99.90;;;;;;5058127;28;20075;-74
2024/01/31 11:08:41;;;;;;;5.77;3.27;;;6.80;99.90;;;;;;5056984;28;20082;-69
2024/01/31 11:11:12;;;;;;;7.57;3.42;;;6.90;99.90;;;;;;5045130;28;20296;-70
2024/01/31 11:13:38;;;;;;;6.18;3.58;;;6.90;99.90;;;;;;5062245;28;20095;-70
2024/01/31 11:16:05;;;;;;;7.13;3.45;;;6.80;99.90;;;;;;5062041;28;20039;-70
2024/01/31 11:18:31;;;;;;;6.82;3.70;;;6.90;99.90;;;;;;5061274;28;20557;-70
2024/01/31 11:21:05;;;;;;;;;;;6.90;99.90;;;;;;5040407;28;20051;-70
2024/01/31 11:23:31;;;;;;;6.10;3.35;;;6.80;99.90;;;;;;5057136;28;20234;-70
2024/01/31 11:26:00;;;;;;;7.25;3.08;;;6.80;99.90;;;;;;5058799;28;20123;-70
2024/01/31 11:28:27;;;;;;;5.70;3.17;;;6.90;99.90;;;;;;5059512;28;20394;-70
2024/01/31 11:30:53;;;;;;;7.05;3.10;;;6.90;99.90;;;;;;5060802;28;20048;-70
2024/01/31 11:33:20;;;;;;;4.75;2.60;;;6.90;99.90;;;;;;5054760;28;20097;-70
2024/01/31 11:35:46;;;;;;;7.18;3.20;;;7.00;99.90;;;;;;5053496;28;20684;-70
2024/01/31 11:38:13;;;;;;;10.02;3.65;;;6.90;99.90;;;;;;5055593;28;20060;-70
2024/01/31 11:40:39;;;;;;;5.70;3.00;;;6.90;99.90;;;;;;5053758;28;20063;-70
2024/01/31 11:43:06;;;;;;;6.73;3.60;;;7.10;99.90;;;;;;5056344;28;20048;-70
2024/01/31 11:45:31;;;;;;;5.70;3.30;;;7.00;99.90;;;;;;5036848;28;20558;-70
2024/01/31 11:47:58;;;;;;;8.13;3.70;;;7.00;99.90;;;;;;5059420;28;20113;-70
2024/01/31 11:50:29;;;;;;;4.75;2.92;;;7.00;99.90;;;;;;5060527;28;20036;-70
2024/01/31 11:52:55;;;;;;;8.05;3.60;;;7.00;99.90;;;;;;5053924;28;20053;-70
2024/01/31 11:55:22;;;;;;;6.47;3.08;;;7.00;99.90;;;;;;5062118;28;20052;-70
2024/01/31 11:57:49;;;;;;;6.22;3.58;;;7.00;99.90;;;;;;5062324;28;20052;-70
2024/01/31 12:00:16;;;;;;;4.80;3.05;;;7.00;99.90;;;;;;5048376;28;20398;-70
2024/01/31 12:02:42;;;;;;;7.20;3.67;;;7.00;99.90;;;;;;5056498;28;20400;-70
2024/01/31 12:05:08;;;;;;;8.20;3.25;;;7.00;99.90;;;;;;5058446;28;20049;-70
2024/01/31 12:07:34;;;;;;;8.33;3.53;;;7.10;99.90;;;;;;5050444;28;20484;-70
2024/01/31 12:10:00;;;;;;;7.70;3.20;;;7.10;99.90;;;;;;5053116;28;20037;-70
2024/01/31 12:12:26;;;;;;;9.70;3.67;;;7.10;99.90;;;;;;5055124;28;20051;-70
2024/01/31 12:14:53;;;;;;;8.57;3.70;;;7.10;99.90;;;;;;5054919;28;20037;-70
2024/01/31 12:17:22;;;;;;;;;;;7.10;99.90;;;;;;5058703;28;20036;-71
2024/01/31 12:19:48;;;;;;;;;;;7.00;99.90;;;;;;5059667;28;19928;-71
2024/01/31 12:22:18;;;;;;;;;;;7.10;99.90;;;;;;5061507;28;19917;-68
2024/01/31 12:24:44;;;;;;;;;;;7.10;99.90;;;;;;5061083;28;19925;-67
2024/01/31 12:27:10;;;;;;;;;;;7.10;99.90;;;;;;5063771;28;20183;-68
2024/01/31 12:29:36;;;;;;;;;;;7.10;99.90;;;;;;5048529;28;19920;-70
2024/01/31 12:32:01;;;;;;;;;;;7.20;99.90;;;;;;5062442;28;20380;-68
2024/01/31 12:34:27;;;;;;;;;;;7.20;99.90;;;;;;5064947;28;20301;-68
2024/01/31 12:36:53;;;;;;;;;;;7.20;99.90;;;;;;5062200;28;19968;-68
2024/01/31 12:39:20;;;;;;;;;;;7.20;99.90;;;;;;5062439;28;20031;-67
2024/01/31 12:41:50;;;;;;;;;;;7.20;99.90;;;;;;5055758;28;19976;-68
2024/01/31 12:44:15;;;;;;;;;;;7.20;99.90;;;;;;5063980;28;20303;-68
2024/01/31 12:46:41;;;;;;;;;;;7.20;99.90;;;;;;5055146;28;19916;-68
2024/01/31 12:49:07;;;;;;;;;;;7.20;99.90;;;;;;5045717;28;20376;-69
2024/01/31 12:51:32;;;;;;;;;;;7.20;99.90;;;;;;5059710;28;19928;-68
2024/01/31 12:53:58;;;;;;;;;;;7.20;99.90;;;;;;5062721;28;19970;-69
2024/01/31 12:56:23;;;;;;;;;;;7.20;99.90;;;;;;5060765;28;20448;-68
2024/01/31 12:58:49;;;;;;;;;;;7.20;99.90;;;;;;5055635;28;20303;-69